Terminal Aerodrome Forecast
Issued by NWS Sioux Falls, SD

Home | Current Version | Previous Version | Text Only | Print | Product List | Glossary Off
Versions: 1 2 3 4 5 6 7 8 9 10 11 12 13 14 15

201
FTUS43 KFSD 151736 AAB
TAFHON
TAF AMD
KHON 151736Z 1518/1618 25012G19KT P6SM FEW150
     FM152000 28015G23KT P6SM SKC
     FM152300 28009KT P6SM SKC
     FM160100 25005KT P6SM SKC
     FM160800 18004KT P6SM SKC
     FM161600 19010KT P6SM SKC=

USA.gov is the U.S. government's official web portal to all federal, state and local government web resources and services.